Time;durP1;ratioP1;P1;durP2;ratioP2;P2;SDS_P1;SDS_P2;PMS_P1;PMS_P2;Temp;Humidity;BMP_temperature;BMP_pressure;BME280_temperature;BME280_humidity;BME280_pressure;Samples;Min_cycle;Max_cycle;Signal;HPM_P1;HPM_P2
2022/04/24 00:01:42;;;;;;;42.63;31.07;;;9.30;99.90;;;;;;5111480;28;20532;-82
2022/04/24 00:04:08;;;;;;;39.63;30.53;;;9.30;99.90;;;;;;5106161;28;20101;-80
2022/04/24 00:06:34;;;;;;;39.70;30.23;;;9.30;99.90;;;;;;5072730;28;20089;-80
2022/04/24 00:09:00;;;;;;;40.33;30.20;;;9.30;99.90;;;;;;5091325;28;20373;-80
2022/04/24 00:11:26;;;;;;;39.87;30.47;;;9.20;99.90;;;;;;5090944;28;20032;-80
2022/04/24 00:13:52;;;;;;;38.57;29.17;;;9.20;99.90;;;;;;5090191;28;20477;-80
2022/04/24 00:16:18;;;;;;;39.73;30.70;;;9.30;99.90;;;;;;5090279;28;20035;-80
2022/04/24 00:18:43;;;;;;;39.67;29.57;;;9.40;99.90;;;;;;5090840;28;20020;-80
2022/04/24 00:21:09;;;;;;;40.30;29.07;;;9.30;99.90;;;;;;5072703;28;20754;-81
2022/04/24 00:23:35;;;;;;;40.73;31.00;;;9.30;99.90;;;;;;5070484;28;20024;-80
2022/04/24 00:26:00;;;;;;;41.80;30.63;;;9.20;99.90;;;;;;5070515;28;20032;-80
2022/04/24 00:28:26;;;;;;;43.67;32.60;;;9.10;99.90;;;;;;5081775;28;20129;-80
2022/04/24 00:30:52;;;;;;;41.47;30.53;;;9.00;99.90;;;;;;5110912;28;20055;-80
2022/04/24 00:33:17;;;;;;;39.57;31.07;;;9.00;99.90;;;;;;5111142;28;20028;-80
2022/04/24 00:35:43;;;;;;;42.77;31.30;;;9.00;99.90;;;;;;5074299;28;20047;-80
2022/04/24 00:38:09;;;;;;;45.40;32.27;;;9.00;99.90;;;;;;5090954;28;20020;-80
2022/04/24 00:40:35;;;;;;;42.27;31.57;;;9.00;99.90;;;;;;5095851;28;20026;-81
2022/04/24 00:43:00;;;;;;;42.13;31.43;;;9.00;99.90;;;;;;5092582;28;20110;-80
2022/04/24 00:45:26;;;;;;;41.00;31.80;;;8.90;99.90;;;;;;5088702;28;20016;-81
2022/04/24 00:47:52;;;;;;;46.13;34.10;;;9.00;99.90;;;;;;5089715;28;20028;-81
2022/04/24 00:50:17;;;;;;;44.97;33.60;;;8.90;99.90;;;;;;5090840;28;20043;-81
2022/04/24 00:52:45;;;;;;;42.67;32.50;;;8.90;99.90;;;;;;5090650;28;20034;-81
2022/04/24 00:55:10;;;;;;;44.77;32.17;;;8.90;99.90;;;;;;5090012;28;20123;-81
2022/04/24 00:57:36;;;;;;;41.50;31.23;;;8.90;99.90;;;;;;5073019;28;20496;-85
2022/04/24 01:00:03;;;;;;;39.03;30.37;;;9.00;99.90;;;;;;5053362;28;20414;-81
2022/04/24 01:02:29;;;;;;;40.33;30.53;;;9.00;99.90;;;;;;5073204;28;20025;-81
2022/04/24 01:04:57;;;;;;;42.47;30.73;;;9.10;99.90;;;;;;5072990;28;20071;-81
2022/04/24 01:07:22;;;;;;;43.77;31.10;;;9.10;99.90;;;;;;5072497;28;20036;-81
2022/04/24 01:09:48;;;;;;;42.67;30.93;;;9.00;99.90;;;;;;5055358;28;20032;-81
2022/04/24 01:12:14;;;;;;;44.60;31.50;;;9.00;99.90;;;;;;5072917;28;20107;-81
2022/04/24 01:14:39;;;;;;;42.30;31.07;;;9.00;99.90;;;;;;5073308;28;20389;-81
2022/04/24 01:17:05;;;;;;;40.53;30.83;;;8.80;99.90;;;;;;5072855;28;20108;-82
2022/04/24 01:19:31;;;;;;;44.70;33.07;;;8.80;99.90;;;;;;5073116;28;20074;-81
2022/04/24 01:21:57;;;;;;;44.70;34.47;;;8.70;99.90;;;;;;5088277;28;20029;-82
2022/04/24 01:24:25;;;;;;;44.00;32.57;;;8.60;99.90;;;;;;5079780;28;20024;-80
2022/04/24 01:26:51;;;;;;;43.07;32.40;;;8.80;99.90;;;;;;5110471;28;20027;-80
2022/04/24 01:29:17;;;;;;;45.40;32.87;;;8.70;99.90;;;;;;5110115;28;20043;-80
2022/04/24 01:31:44;;;;;;;45.00;33.17;;;8.70;99.90;;;;;;5110477;28;20039;-80
2022/04/24 01:34:11;;;;;;;44.67;33.50;;;8.70;99.90;;;;;;5102917;28;20107;-81
2022/04/24 01:36:36;;;;;;;47.70;34.00;;;8.70;99.90;;;;;;5072858;28;20025;-81
2022/04/24 01:39:04;;;;;;;43.53;34.03;;;8.70;99.90;;;;;;5054615;28;20035;-82
2022/04/24 01:41:31;;;;;;;44.63;33.03;;;8.80;99.90;;;;;;5072566;28;20016;-82
2022/04/24 01:43:57;;;;;;;44.73;33.33;;;8.80;99.90;;;;;;5052050;28;20055;-81
2022/04/24 01:46:23;;;;;;;48.87;34.00;;;8.80;99.90;;;;;;5080558;28;20131;-81
2022/04/24 01:48:48;;;;;;;45.83;34.20;;;8.70;99.90;;;;;;5072186;28;20024;-81
2022/04/24 01:51:14;;;;;;;47.33;35.77;;;8.60;99.90;;;;;;5089830;28;20028;-81
2022/04/24 01:53:40;;;;;;;53.27;38.67;;;8.60;99.90;;;;;;5091348;28;20130;-77
2022/04/24 01:56:07;;;;;;;47.93;35.63;;;8.50;99.90;;;;;;5091066;28;20044;-77
2022/04/24 01:58:34;;;;;;;49.17;36.27;;;8.50;99.90;;;;;;5092215;28;20024;-77
2022/04/24 02:01:00;;;;;;;48.47;37.03;;;8.50;99.90;;;;;;5091374;28;20364;-77
2022/04/24 02:03:27;;;;;;;50.10;35.87;;;8.50;99.90;;;;;;5098980;28;20034;-76
2022/04/24 02:05:53;;;;;;;51.40;36.73;;;8.40;99.90;;;;;;5112000;28;20494;-76
2022/04/24 02:08:19;;;;;;;49.70;36.23;;;8.50;99.90;;;;;;5112217;28;20034;-76
2022/04/24 02:10:45;;;;;;;50.80;36.13;;;8.70;99.90;;;;;;5112209;28;20023;-76
2022/04/24 02:13:11;;;;;;;46.47;34.93;;;8.70;99.90;;;;;;5080527;28;20032;-76
2022/04/24 02:15:36;;;;;;;50.37;37.20;;;8.80;99.90;;;;;;5072388;28;20364;-82
2022/04/24 02:18:02;;;;;;;52.93;37.63;;;8.80;99.90;;;;;;5087888;28;20560;-81
2022/04/24 02:20:31;;;;;;;53.23;38.70;;;8.80;99.90;;;;;;5075059;28;20435;-81
2022/04/24 02:22:57;;;;;;;51.57;37.97;;;8.60;99.90;;;;;;5091366;28;20099;-81
2022/04/24 02:25:27;;;;;;;51.47;37.87;;;8.70;99.90;;;;;;5075690;28;20112;-82
2022/04/24 02:27:54;;;;;;;51.40;38.87;;;8.60;99.90;;;;;;5075732;28;20100;-81
2022/04/24 02:30:23;;;;;;;52.63;38.03;;;8.70;99.90;;;;;;5075477;28;20056;-82
2022/04/24 02:32:49;;;;;;;53.53;38.53;;;8.70;99.90;;;;;;5075797;28;20040;-82
2022/04/24 02:35:15;;;;;;;51.33;37.73;;;8.50;99.90;;;;;;5075475;28;20025;-82
2022/04/24 02:37:40;;;;;;;54.33;39.23;;;8.50;99.90;;;;;;5075726;28;20090;-82
2022/04/24 02:40:10;;;;;;;58.90;40.27;;;8.50;99.90;;;;;;5090810;28;20036;-81
2022/04/24 02:42:39;;;;;;;57.00;40.97;;;8.40;99.90;;;;;;5073491;28;20027;-85
2022/04/24 02:45:09;;;;;;;54.57;40.10;;;8.40;99.90;;;;;;5075413;28;20476;-85
2022/04/24 02:47:35;;;;;;;55.07;39.40;;;8.40;99.90;;;;;;5094974;28;20036;-85
2022/04/24 02:50:01;;;;;;;56.27;39.87;;;8.40;99.90;;;;;;5092545;28;20029;-76
2022/04/24 02:52:26;;;;;;;59.10;39.50;;;8.40;99.90;;;;;;5091936;28;20538;-81
2022/04/24 02:54:52;;;;;;;55.97;39.70;;;8.30;99.90;;;;;;5091882;28;20028;-80
2022/04/24 02:57:19;;;;;;;53.40;38.40;;;8.50;99.90;;;;;;5108733;28;20028;-81
2022/04/24 02:59:48;;;;;;;54.27;38.97;;;8.60;99.90;;;;;;5112450;28;20418;-81
2022/04/24 03:02:14;;;;;;;59.50;41.00;;;8.50;99.90;;;;;;5094684;28;20081;-81
2022/04/24 03:04:39;;;;;;;57.57;39.80;;;8.40;99.90;;;;;;5091121;28;20024;-85
2022/04/24 03:07:06;;;;;;;57.53;41.00;;;8.30;99.90;;;;;;5106934;28;20119;-85
2022/04/24 03:09:31;;;;;;;56.00;39.60;;;8.30;99.90;;;;;;5113076;28;20031;-85
2022/04/24 03:11:57;;;;;;;59.23;41.53;;;8.30;99.90;;;;;;5105273;28;20024;-85
2022/04/24 03:14:23;;;;;;;52.37;37.80;;;8.30;99.90;;;;;;5072579;28;20036;-84
2022/04/24 03:16:49;;;;;;;59.30;41.07;;;8.50;99.90;;;;;;5087216;28;20020;-85
2022/04/24 03:19:14;;;;;;;55.60;39.70;;;8.40;99.90;;;;;;5111340;28;20027;-85
2022/04/24 03:21:40;;;;;;;60.97;40.60;;;8.30;99.90;;;;;;5112886;28;20073;-85
2022/04/24 03:24:06;;;;;;;57.83;40.57;;;8.30;99.90;;;;;;5075614;28;20051;-85
2022/04/24 03:26:32;;;;;;;59.43;42.20;;;8.40;99.90;;;;;;5092952;28;20032;-85
2022/04/24 03:28:57;;;;;;;64.00;42.10;;;8.30;99.90;;;;;;5108535;28;20106;-85
2022/04/24 03:31:24;;;;;;;61.83;42.43;;;8.40;99.90;;;;;;5108424;28;20024;-85
2022/04/24 03:33:52;;;;;;;64.77;44.60;;;8.30;99.90;;;;;;5071898;28;20032;-85
2022/04/24 03:36:18;;;;;;;60.30;43.63;;;8.30;99.90;;;;;;5070868;28;20024;-85
2022/04/24 03:38:43;;;;;;;60.17;43.60;;;8.30;99.90;;;;;;5074482;28;20103;-85
2022/04/24 03:41:09;;;;;;;61.70;43.23;;;8.30;99.90;;;;;;5091753;28;20103;-85
2022/04/24 03:43:34;;;;;;;57.87;41.87;;;8.30;99.90;;;;;;5072513;28;20436;-85
2022/04/24 03:46:00;;;;;;;60.70;42.60;;;8.30;99.90;;;;;;5053526;28;20117;-85
2022/04/24 03:48:26;;;;;;;62.03;43.00;;;8.30;99.90;;;;;;5088465;28;20028;-85
2022/04/24 03:50:52;;;;;;;62.73;42.47;;;8.30;99.90;;;;;;5092226;28;20477;-85
2022/04/24 03:53:18;;;;;;;58.33;42.10;;;8.30;99.90;;;;;;5095852;28;20386;-86
2022/04/24 03:55:45;;;;;;;64.00;44.70;;;8.30;99.90;;;;;;5075982;28;20032;-81
2022/04/24 03:58:11;;;;;;;61.73;43.30;;;8.30;99.90;;;;;;5071153;28;20115;-82
2022/04/24 04:00:37;;;;;;;63.60;44.50;;;8.30;99.90;;;;;;5070981;28;20028;-81
2022/04/24 04:03:03;;;;;;;60.07;42.67;;;8.30;99.90;;;;;;5105093;28;20295;-81
2022/04/24 04:05:29;;;;;;;59.87;43.10;;;8.30;99.90;;;;;;5081530;28;20069;-81
2022/04/24 04:07:55;;;;;;;59.60;42.33;;;8.30;99.90;;;;;;5092917;28;20406;-81
2022/04/24 04:10:22;;;;;;;68.47;44.40;;;8.30;99.90;;;;;;5111535;28;20034;-81
2022/04/24 04:12:51;;;;;;;58.70;43.33;;;8.30;99.90;;;;;;5095364;28;20024;-82
2022/04/24 04:15:17;;;;;;;66.03;44.77;;;8.30;99.90;;;;;;5091092;28;20395;-81
2022/04/24 04:17:42;;;;;;;65.47;45.33;;;8.30;99.90;;;;;;5107044;28;20016;-81
2022/04/24 04:20:11;;;;;;;66.57;44.23;;;8.30;99.90;;;;;;5099277;28;20028;-81
2022/04/24 04:22:53;;;;;;;62.37;43.17;;;8.30;99.90;;;;;;5096039;28;20105;-82
2022/04/24 04:25:19;;;;;;;67.27;46.47;;;8.30;99.90;;;;;;5094302;28;20330;-82
2022/04/24 04:27:45;;;;;;;65.40;45.27;;;8.30;99.90;;;;;;5093989;28;20024;-82
2022/04/24 04:30:11;;;;;;;66.13;44.53;;;8.30;99.90;;;;;;5094122;28;20051;-69
2022/04/24 04:32:37;;;;;;;62.73;44.47;;;8.30;99.90;;;;;;5080051;28;20032;-82
2022/04/24 04:35:04;;;;;;;65.00;44.00;;;8.30;99.90;;;;;;5092805;28;20107;-80
2022/04/24 04:37:31;;;;;;;62.57;42.83;;;8.30;99.90;;;;;;5074490;28;20048;-79
2022/04/24 04:39:57;;;;;;;64.03;43.17;;;8.30;99.90;;;;;;5092593;28;20038;-79
2022/04/24 04:42:23;;;;;;;63.27;42.93;;;8.30;99.90;;;;;;5090860;28;20507;-79
2022/04/24 04:44:48;;;;;;;58.33;41.40;;;8.30;99.90;;;;;;5071358;28;20115;-79
2022/04/24 04:47:14;;;;;;;56.53;41.00;;;8.30;99.90;;;;;;5091664;28;20028;-79
2022/04/24 04:49:39;;;;;;;59.80;41.47;;;8.40;99.90;;;;;;5069535;28;20024;-79
2022/04/24 04:52:05;;;;;;;61.00;39.47;;;8.40;99.90;;;;;;5065809;28;20028;-79
2022/04/24 04:54:30;;;;;;;59.40;40.93;;;8.40;99.90;;;;;;5090412;28;20069;-79
2022/04/24 04:56:56;;;;;;;54.73;38.93;;;8.50;99.90;;;;;;5074469;28;20017;-79
2022/04/24 04:59:22;;;;;;;59.30;38.73;;;8.50;99.90;;;;;;5085169;28;20032;-79
2022/04/24 05:01:47;;;;;;;52.63;37.70;;;8.50;99.90;;;;;;5083065;28;20089;-80
2022/04/24 05:04:13;;;;;;;53.77;37.33;;;8.50;99.90;;;;;;5089173;28;20060;-79
2022/04/24 05:06:38;;;;;;;48.73;33.83;;;8.60;99.90;;;;;;5094056;28;20024;-80
2022/04/24 05:09:05;;;;;;;53.07;37.67;;;8.60;99.90;;;;;;5091763;28;20063;-79
2022/04/24 05:11:31;;;;;;;51.73;36.83;;;8.60;99.90;;;;;;5084479;28;20673;-79
2022/04/24 05:13:56;;;;;;;48.17;35.33;;;8.70;99.90;;;;;;5085629;28;20444;-79
2022/04/24 05:16:22;;;;;;;48.07;35.53;;;8.70;99.90;;;;;;5087769;28;20020;-80
2022/04/24 05:18:48;;;;;;;49.37;35.67;;;8.70;99.90;;;;;;5088618;28;20035;-79
2022/04/24 05:21:13;;;;;;;46.00;33.97;;;8.70;99.90;;;;;;5090966;28;20032;-79
2022/04/24 05:23:42;;;;;;;44.87;32.10;;;8.80;99.90;;;;;;5090537;28;20421;-79
2022/04/24 05:26:07;;;;;;;46.27;32.30;;;8.80;99.90;;;;;;5090328;28;20124;-81
2022/04/24 05:28:33;;;;;;;43.17;32.43;;;8.80;99.90;;;;;;5103440;28;20089;-78
2022/04/24 05:30:58;;;;;;;43.17;31.80;;;8.90;99.90;;;;;;5095703;28;20031;-78
2022/04/24 05:33:24;;;;;;;45.10;33.17;;;8.90;99.90;;;;;;5079345;28;20020;-76
2022/04/24 05:35:50;;;;;;;41.67;31.37;;;8.90;99.90;;;;;;5100517;28;20020;-76
2022/04/24 05:38:15;;;;;;;42.27;30.10;;;9.00;99.90;;;;;;5095839;28;20032;-76
2022/04/24 05:40:41;;;;;;;44.33;31.17;;;9.00;99.90;;;;;;5100142;28;20095;-76
2022/04/24 05:43:06;;;;;;;41.63;31.90;;;9.00;99.90;;;;;;5078433;28;20024;-76
2022/04/24 05:45:32;;;;;;;50.00;32.73;;;9.10;99.90;;;;;;5096780;28;20058;-76
2022/04/24 05:47:58;;;;;;;44.07;32.60;;;9.10;99.90;;;;;;5100392;28;20055;-77
2022/04/24 05:50:24;;;;;;;49.27;33.97;;;9.10;99.90;;;;;;5081004;28;20467;-74
2022/04/24 05:52:54;;;;;;;49.37;34.27;;;9.20;99.90;;;;;;5093269;28;20036;-74
2022/04/24 05:55:19;;;;;;;50.03;35.20;;;9.20;99.90;;;;;;5096584;28;20415;-75
2022/04/24 05:57:45;;;;;;;49.70;34.80;;;9.20;99.90;;;;;;5097208;28;20032;-75
2022/04/24 06:00:12;;;;;;;49.67;34.87;;;9.20;99.90;;;;;;5096567;28;20089;-73
2022/04/24 06:02:39;;;;;;;48.67;34.03;;;9.20;99.90;;;;;;5096835;28;20020;-75
2022/04/24 06:05:05;;;;;;;51.57;35.00;;;9.20;99.90;;;;;;5081231;28;20029;-74
2022/04/24 06:07:31;;;;;;;47.50;33.90;;;9.20;99.90;;;;;;5076248;28;20078;-75
2022/04/24 06:09:56;;;;;;;46.97;32.83;;;9.20;99.90;;;;;;5076431;28;20056;-75
2022/04/24 06:12:22;;;;;;;44.77;32.20;;;9.30;99.90;;;;;;5076291;28;20365;-75
2022/04/24 06:14:48;;;;;;;47.27;33.07;;;9.20;99.90;;;;;;5091782;28;20494;-75
2022/04/24 06:17:13;;;;;;;45.50;32.00;;;9.30;99.90;;;;;;5076007;28;20033;-75
2022/04/24 06:19:39;;;;;;;50.20;34.50;;;9.30;99.90;;;;;;5075908;28;20028;-75
2022/04/24 06:22:05;;;;;;;45.33;33.00;;;9.40;99.90;;;;;;5091426;28;20020;-75
2022/04/24 06:24:30;;;;;;;43.50;31.57;;;9.40;99.90;;;;;;5111649;28;20038;-76
2022/04/24 06:26:56;;;;;;;31.67;23.10;;;9.50;99.90;;;;;;5095977;28;20128;-77
2022/04/24 06:29:22;;;;;;;25.10;19.80;;;9.70;99.90;;;;;;5095800;28;20063;-77
2022/04/24 06:31:47;;;;;;;24.53;19.23;;;9.70;99.90;;;;;;5077560;28;20040;-77
2022/04/24 06:34:13;;;;;;;23.93;18.47;;;9.80;99.90;;;;;;5095549;28;20168;-76
2022/04/24 06:36:38;;;;;;;20.80;15.20;;;9.80;99.90;;;;;;5077575;28;20074;-76
2022/04/24 06:39:04;;;;;;;18.63;14.10;;;9.90;99.90;;;;;;5095704;28;20093;-77
2022/04/24 06:41:32;;;;;;;19.27;15.67;;;10.00;99.90;;;;;;5095323;28;20099;-78
2022/04/24 06:43:58;;;;;;;19.97;14.03;;;10.00;99.90;;;;;;5077528;28;20370;-79
2022/04/24 06:46:24;;;;;;;15.33;11.50;;;10.10;99.90;;;;;;5089568;28;20036;-82
2022/04/24 06:48:50;;;;;;;12.33;10.37;;;10.20;99.90;;;;;;5091363;28;20088;-80
2022/04/24 06:51:15;;;;;;;12.07;9.68;;;10.30;99.90;;;;;;5091855;28;20109;-82
2022/04/24 06:53:41;;;;;;;11.55;9.68;;;10.30;99.90;;;;;;5091427;28;20057;-82
2022/04/24 06:56:07;;;;;;;11.48;9.13;;;10.40;99.90;;;;;;5090390;28;20029;-81
2022/04/24 06:58:33;;;;;;;10.63;8.27;;;10.50;99.90;;;;;;5090749;28;20035;-81
2022/04/24 07:00:59;;;;;;;11.27;8.45;;;10.60;99.90;;;;;;5092087;28;20028;-81
2022/04/24 07:03:26;;;;;;;8.13;5.30;;;10.70;99.90;;;;;;5091989;28;20069;-80
2022/04/24 07:05:57;;;;;;;5.45;4.28;;;10.90;99.90;;;;;;5092274;28;20027;-77
2022/04/24 07:08:24;;;;;;;7.65;4.72;;;11.00;99.90;;;;;;5096283;28;20402;-82
2022/04/24 07:10:50;;;;;;;4.60;4.10;;;11.30;99.90;;;;;;5074114;28;20712;-83
2022/04/24 07:13:16;;;;;;;6.00;4.05;;;11.50;99.90;;;;;;5089158;28;20027;-83
2022/04/24 07:15:42;;;;;;;3.83;2.53;;;11.70;99.90;;;;;;5085333;28;20016;-83
2022/04/24 07:18:07;;;;;;;3.38;2.00;;;12.10;99.90;;;;;;5088689;28;20024;-82
2022/04/24 07:20:33;;;;;;;4.40;2.22;;;12.20;99.90;;;;;;5078625;28;20039;-83
2022/04/24 07:23:01;;;;;;;3.25;2.10;;;12.30;99.90;;;;;;5091065;28;20036;-82
2022/04/24 07:25:33;;;;;;;3.95;1.80;;;12.30;99.90;;;;;;5081470;28;20540;-77
2022/04/24 07:27:59;;;;;;;2.25;1.73;;;12.40;99.90;;;;;;5092750;28;20024;-75
2022/04/24 07:30:24;;;;;;;2.20;1.50;;;12.50;99.90;;;;;;5090975;28;20075;-82
2022/04/24 07:32:55;;;;;;;1.48;1.30;;;12.60;99.90;;;;;;5088389;28;20565;-82
2022/04/24 07:35:22;;;;;;;2.10;1.40;;;12.70;99.90;;;;;;5077756;28;20376;-82
2022/04/24 07:37:48;;;;;;;1.70;1.42;;;12.60;99.90;;;;;;5087165;28;20979;-81
2022/04/24 07:40:16;;;;;;;1.95;1.52;;;12.60;99.90;;;;;;5088926;28;20388;-83
2022/04/24 07:42:48;;;;;;;1.42;1.27;;;12.60;99.90;;;;;;5089523;28;20030;-78
2022/04/24 07:45:21;;;;;;;2.50;1.67;;;12.70;99.90;;;;;;5082543;28;20123;-77
2022/04/24 07:47:48;;;;;;;2.45;1.60;;;12.70;99.90;;;;;;5093925;28;20019;-77
2022/04/24 07:50:15;;;;;;;2.25;1.50;;;12.60;99.90;;;;;;5093011;28;20380;-77
2022/04/24 07:52:41;;;;;;;2.75;1.58;;;12.70;99.90;;;;;;5093478;28;20107;-77
2022/04/24 07:55:07;;;;;;;2.60;1.60;;;12.70;99.90;;;;;;5092984;28;20145;-82
2022/04/24 07:57:32;;;;;;;3.67;1.63;;;12.70;99.90;;;;;;5091171;28;20028;-82
2022/04/24 08:00:00;;;;;;;1.45;1.23;;;12.70;99.90;;;;;;5085521;28;20999;-82
2022/04/24 08:02:26;;;;;;;2.22;1.50;;;12.70;99.90;;;;;;5085043;28;20063;-78
2022/04/24 08:04:51;;;;;;;2.17;1.40;;;12.60;99.90;;;;;;5086581;28;20054;-76
2022/04/24 08:07:22;;;;;;;2.38;1.73;;;12.60;99.90;;;;;;5075214;28;20097;-76
2022/04/24 08:09:48;;;;;;;1.90;1.60;;;12.70;99.90;;;;;;5088774;28;20135;-79
2022/04/24 08:12:14;;;;;;;2.72;1.30;;;12.60;99.90;;;;;;5078133;28;20032;-78
2022/04/24 08:14:39;;;;;;;3.05;1.48;;;12.50;99.90;;;;;;5086212;28;20477;-78
2022/04/24 08:17:05;;;;;;;1.85;1.50;;;12.50;99.90;;;;;;5086968;28;20540;-78
2022/04/24 08:19:30;;;;;;;2.00;1.67;;;12.40;99.90;;;;;;5087350;28;20106;-78
2022/04/24 08:21:56;;;;;;;2.40;1.98;;;12.40;99.90;;;;;;5075672;28;20055;-79
2022/04/24 08:24:21;;;;;;;2.33;1.60;;;12.30;99.90;;;;;;5076196;28;20043;-79
2022/04/24 08:26:47;;;;;;;1.75;1.30;;;12.20;99.90;;;;;;5085707;28;20036;-79
2022/04/24 08:29:12;;;;;;;2.13;1.45;;;12.10;99.90;;;;;;5073951;28;20059;-78
2022/04/24 08:31:38;;;;;;;1.58;1.35;;;12.20;99.90;;;;;;5088387;28;20099;-79
2022/04/24 08:34:04;;;;;;;1.75;1.13;;;12.30;99.90;;;;;;5089431;28;20036;-79
2022/04/24 08:36:30;;;;;;;1.15;0.93;;;12.40;99.90;;;;;;5087720;28;20027;-79
2022/04/24 08:38:56;;;;;;;1.33;1.00;;;12.30;99.90;;;;;;5077933;28;20043;-79
2022/04/24 08:41:23;;;;;;;1.92;1.17;;;12.30;99.90;;;;;;5073933;28;20035;-78
2022/04/24 08:43:48;;;;;;;1.83;1.15;;;12.30;99.90;;;;;;5084145;28;20327;-78
2022/04/24 08:46:14;;;;;;;3.83;1.02;;;12.60;99.90;;;;;;5083230;28;20040;-79
2022/04/24 08:48:45;;;;;;;1.25;1.10;;;12.60;99.90;;;;;;5082882;28;20396;-79
2022/04/24 08:51:11;;;;;;;2.72;1.00;;;12.60;99.90;;;;;;5081694;28;20043;-78
2022/04/24 08:53:39;;;;;;;2.72;1.15;;;12.60;99.90;;;;;;5084244;28;20035;-78
2022/04/24 08:56:05;;;;;;;1.48;1.10;;;12.70;99.90;;;;;;5083169;28;20114;-79
2022/04/24 08:58:32;;;;;;;1.65;1.00;;;12.80;99.90;;;;;;5082882;28;20796;-79
2022/04/24 09:00:57;;;;;;;1.75;1.17;;;12.90;99.90;;;;;;5081473;28;20461;-81
2022/04/24 09:03:23;;;;;;;1.40;1.13;;;13.10;99.90;;;;;;5080799;28;20024;-81
2022/04/24 09:05:48;;;;;;;1.00;0.80;;;13.20;99.90;;;;;;5076781;28;20028;-81
2022/04/24 09:08:14;;;;;;;1.00;0.90;;;13.40;99.90;;;;;;5078504;28;20105;-80
2022/04/24 09:10:57;;;;;;;1.05;0.95;;;13.50;99.90;;;;;;5077236;28;20024;-81
2022/04/24 09:13:31;;;;;;;1.48;0.80;;;13.50;99.90;;;;;;5063899;28;20123;-81
2022/04/24 09:15:57;;;;;;;2.03;0.80;;;13.70;99.90;;;;;;5074624;28;20032;-81
2022/04/24 09:18:23;;;;;;;0.98;0.80;;;13.90;99.90;;;;;;5079895;28;20129;-80
2022/04/24 09:20:55;;;;;;;1.45;0.95;;;13.80;99.90;;;;;;5076943;28;20071;-81
2022/04/24 09:23:21;;;;;;;1.20;0.80;;;13.80;99.90;;;;;;5081198;28;20482;-76
2022/04/24 09:25:47;;;;;;;0.88;0.82;;;13.90;99.90;;;;;;5092386;28;20020;-76
2022/04/24 09:28:12;;;;;;;1.30;0.82;;;13.90;99.90;;;;;;5093406;28;20028;-75
2022/04/24 09:30:53;;;;;;;1.30;1.00;;;14.10;99.90;;;;;;5094411;28;20070;-79
2022/04/24 09:33:18;;;;;;;1.83;0.80;;;14.00;99.90;;;;;;5092622;28;20066;-77
2022/04/24 09:35:53;;;;;;;0.77;0.70;;;14.00;99.90;;;;;;5094575;28;20078;-78
2022/04/24 09:38:20;;;;;;;0.98;0.80;;;14.00;99.90;;;;;;5084643;28;20032;-78
2022/04/24 09:40:49;;;;;;;1.20;0.90;;;14.00;99.90;;;;;;5095910;28;20036;-78
2022/04/24 09:43:19;;;;;;;2.47;1.02;;;13.90;99.90;;;;;;5093799;28;20073;-82
2022/04/24 09:45:56;;;;;;;1.45;0.93;;;13.90;99.90;;;;;;5090327;28;20028;-78
2022/04/24 09:48:22;;;;;;;1.00;0.80;;;13.90;99.90;;;;;;5086323;28;20107;-79
2022/04/24 09:50:49;;;;;;;2.55;0.90;;;13.90;99.90;;;;;;5096105;28;20460;-79
2022/04/24 09:53:19;;;;;;;1.30;0.80;;;14.00;99.90;;;;;;5077487;28;20035;-78
2022/04/24 09:55:47;;;;;;;1.25;0.93;;;14.00;99.90;;;;;;5091073;28;20024;-78
2022/04/24 09:58:13;;;;;;;0.95;0.80;;;13.80;99.90;;;;;;5090565;28;20026;-78
2022/04/24 10:00:40;;;;;;;1.70;0.80;;;14.00;99.90;;;;;;5090111;28;20064;-78
2022/04/24 10:03:07;;;;;;;0.82;0.80;;;14.00;99.90;;;;;;5090082;28;20035;-79
2022/04/24 10:05:32;;;;;;;1.15;0.73;;;14.00;99.90;;;;;;5090531;28;20031;-79
2022/04/24 10:08:01;;;;;;;1.13;0.68;;;14.00;99.90;;;;;;5096304;28;20024;-79
2022/04/24 10:10:27;;;;;;;1.85;0.98;;;14.00;99.90;;;;;;5096271;28;20480;-79
2022/04/24 10:12:54;;;;;;;1.88;0.73;;;14.10;99.90;;;;;;5096408;28;20506;-78
2022/04/24 10:15:23;;;;;;;0.60;0.60;;;14.10;99.90;;;;;;5096423;28;20020;-77
2022/04/24 10:18:01;;;;;;;0.75;0.70;;;14.10;99.90;;;;;;5096131;28;20020;-77
2022/04/24 10:21:07;;;;;;;0.70;0.50;;;14.10;99.90;;;;;;5095970;28;20047;-78
2022/04/24 10:23:35;;;;;;;0.40;0.40;;;13.90;99.90;;;;;;5096090;28;20024;-77
2022/04/24 10:26:03;;;;;;;1.50;0.55;;;13.80;99.90;;;;;;5097769;28;20024;-76
2022/04/24 10:28:38;;;;;;;0.70;0.70;;;13.80;99.90;;;;;;5094137;28;20440;-76
2022/04/24 10:31:05;;;;;;;2.22;0.70;;;13.90;99.90;;;;;;5093052;28;20101;-76
2022/04/24 10:33:32;;;;;;;0.77;0.60;;;13.80;99.90;;;;;;5093308;28;20060;-76
2022/04/24 10:36:11;;;;;;;0.70;0.60;;;13.80;99.90;;;;;;5093413;28;20020;-73
2022/04/24 10:38:47;;;;;;;1.88;0.60;;;13.80;99.90;;;;;;5093552;28;20564;-75
2022/04/24 10:41:18;;;;;;;2.22;0.70;;;13.80;99.90;;;;;;5088523;28;20024;-74
2022/04/24 10:43:46;;;;;;;0.45;0.45;;;13.70;99.90;;;;;;5087579;28;20034;-79
2022/04/24 10:46:29;;;;;;;1.15;0.57;;;13.70;99.90;;;;;;5084468;28;20580;-81
2022/04/24 10:49:16;;;;;;;1.17;0.50;;;13.90;99.90;;;;;;5092688;28;20379;-77
2022/04/24 10:51:45;;;;;;;3.88;0.47;;;13.90;99.90;;;;;;5077217;28;20031;-77
2022/04/24 10:54:16;;;;;;;0.47;0.47;;;13.70;99.90;;;;;;5095597;28;20047;-77
2022/04/24 10:56:49;;;;;;;1.70;0.85;;;13.70;99.90;;;;;;5095703;28;20101;-77
2022/04/24 10:59:18;;;;;;;1.00;0.68;;;13.60;99.90;;;;;;5094047;28;20073;-79
2022/04/24 11:01:47;;;;;;;0.75;0.70;;;13.50;99.90;;;;;;5095528;28;20023;-77
2022/04/24 11:04:14;;;;;;;0.73;0.63;;;13.40;99.90;;;;;;5094379;28;20027;-77
2022/04/24 11:06:55;;;;;;;0.90;0.60;;;13.40;99.90;;;;;;5092208;28;20638;-77
2022/04/24 11:09:21;;;;;;;0.70;0.70;;;13.30;99.90;;;;;;5093698;28;20476;-78
2022/04/24 11:11:58;;;;;;;1.67;0.70;;;13.30;99.90;;;;;;5091339;28;20410;-77
2022/04/24 11:14:25;;;;;;;0.68;0.50;;;13.20;99.90;;;;;;5093660;28;20413;-77
2022/04/24 11:16:53;;;;;;;0.50;0.50;;;13.20;99.90;;;;;;5094088;28;20456;-77
2022/04/24 11:19:25;;;;;;;1.02;0.85;;;13.20;99.90;;;;;;5092510;28;20115;-77
2022/04/24 11:21:59;;;;;;;0.60;0.60;;;13.20;99.90;;;;;;5091636;28;20016;-77
2022/04/24 11:24:26;;;;;;;0.57;0.57;;;13.20;99.90;;;;;;5091520;28;20052;-77
2022/04/24 11:26:52;;;;;;;1.00;0.70;;;13.20;99.90;;;;;;5080991;28;20403;-77
2022/04/24 11:29:20;;;;;;;0.75;0.70;;;13.10;99.90;;;;;;5083771;28;20040;-77
2022/04/24 11:31:50;;;;;;;1.02;0.80;;;13.20;99.90;;;;;;5079350;28;20484;-77
2022/04/24 11:34:20;;;;;;;2.03;0.70;;;13.10;99.90;;;;;;5094658;28;20024;-77
2022/04/24 11:36:47;;;;;;;0.95;0.70;;;13.10;99.90;;;;;;5094725;28;20020;-77
2022/04/24 11:39:13;;;;;;;1.67;0.80;;;13.00;99.90;;;;;;5095036;28;20022;-77
2022/04/24 11:41:39;;;;;;;0.57;0.57;;;13.00;99.90;;;;;;5094769;28;20046;-77
2022/04/24 11:52:20;;;;;;;0.50;0.50;;;12.80;99.90;;;;;;5090093;28;20112;-77
2022/04/24 11:54:47;;;;;;;2.88;0.90;;;12.90;99.90;;;;;;5094750;28;20434;-76
2022/04/24 11:57:13;;;;;;;2.75;0.70;;;13.00;99.90;;;;;;5094595;28;20024;-76
2022/04/24 11:59:39;;;;;;;1.08;0.60;;;13.10;99.90;;;;;;5084413;28;20040;-76
2022/04/24 12:02:09;;;;;;;0.98;0.70;;;13.10;99.90;;;;;;5099508;28;20051;-81
2022/04/24 12:04:38;;;;;;;1.75;0.50;;;13.10;99.90;;;;;;5096407;28;20024;-77
2022/04/24 12:07:06;;;;;;;0.95;0.55;;;13.20;99.90;;;;;;5096120;28;20043;-82
2022/04/24 12:09:32;;;;;;;1.58;0.50;;;13.30;99.90;;;;;;5098038;28;20055;-82
2022/04/24 12:12:14;;;;;;;2.63;0.60;;;13.30;99.90;;;;;;5081966;28;20032;-82
2022/04/24 12:14:41;;;;;;;4.32;0.70;;;13.30;99.90;;;;;;5094828;28;20404;-77
2022/04/24 12:17:09;;;;;;;0.52;0.52;;;13.30;99.90;;;;;;5093846;28;20035;-78
2022/04/24 12:19:36;;;;;;;1.30;0.70;;;13.20;99.90;;;;;;5093747;28;20031;-78
2022/04/24 12:22:10;;;;;;;1.10;0.73;;;13.20;99.90;;;;;;5093828;28;20020;-78
2022/04/24 12:24:43;;;;;;;1.47;0.67;;;13.10;99.90;;;;;;5093795;28;20067;-77
2022/04/24 12:27:12;;;;;;;2.15;0.80;;;13.10;99.90;;;;;;5092847;28;20073;-78
2022/04/24 12:29:45;;;;;;;0.85;0.52;;;13.20;99.90;;;;;;5093887;28;20372;-78
2022/04/24 12:32:14;;;;;;;1.30;0.55;;;13.00;99.90;;;;;;5093799;28;20032;-77
2022/04/24 12:34:45;;;;;;;1.00;0.70;;;13.10;99.90;;;;;;5093510;28;20106;-78
2022/04/24 12:37:12;;;;;;;0.75;0.60;;;13.00;99.90;;;;;;5093668;28;20023;-78
2022/04/24 12:39:50;;;;;;;1.25;0.85;;;12.90;99.90;;;;;;5093388;28;20035;-78
2022/04/24 12:42:17;;;;;;;1.33;0.70;;;12.90;99.90;;;;;;5093668;28;20020;-77
2022/04/24 12:44:46;;;;;;;2.17;0.75;;;12.90;99.90;;;;;;5097766;28;20091;-81
2022/04/24 12:47:13;;;;;;;0.93;0.80;;;12.90;99.90;;;;;;5100737;28;20032;-81
2022/04/24 12:49:44;;;;;;;1.52;0.60;;;12.80;99.90;;;;;;5099036;28;20024;-81